Time,TemperatureF,DewpointF,PressureIn,WindDirection,WindDirectionDegrees,WindSpeedMPH,WindSpeedGustMPH,Humidity,HourlyPrecipIn,Conditions,Clouds,dailyrainin,SoftwareType,DateUTC
2013-05-01 00:03:00,41.4,35.0,30.40,NE,55,0.0,0.0,79,0.00,,,0.00,weatherlink.com 1.10,2013-05-01 04:03:00,
2013-05-01 00:18:00,41.0,35.0,30.40,NE,55,0.0,0.0,79,0.00,,,0.00,weatherlink.com 1.10,2013-05-01 04:18:00,
2013-05-01 00:33:00,41.0,37.0,30.41,NE,55,0.0,0.0,86,0.00,,,0.00,weatherlink.com 1.10,2013-05-01 04:33:00,
2013-05-01 00:48:00,40.3,37.0,30.41,NE,55,0.0,0.0,87,0.00,,,0.00,weatherlink.com 1.10,2013-05-01 04:48:00,
2013-05-01 01:03:00,39.6,36.0,30.42,NE,55,0.0,0.0,87,0.00,,,0.00,weatherlink.com 1.10,2013-05-01 05:03:00,
2013-05-01 01:18:00,39.1,35.0,30.42,NE,55,0.0,0.0,86,0.00,,,0.00,weatherlink.com 1.10,2013-05-01 05:18:00,
2013-05-01 01:33:00,39.1,35.0,30.41,NE,55,0.0,0.0,86,0.00,,,0.00,weatherlink.com 1.10,2013-05-01 05:33:00,
2013-05-01 01:48:00,39.4,36.0,30.41,NE,55,0.0,0.0,87,0.00,,,0.00,weatherlink.com 1.10,2013-05-01 05:48:00,
2013-05-01 02:03:00,39.4,36.0,30.41,SSE,167,0.0,0.0,86,0.00,,,0.00,weatherlink.com 1.10,2013-05-01 06:03:00,
2013-05-01 02:18:00,39.1,35.0,30.41,SSE,168,0.0,0.0,86,0.00,,,0.00,weatherlink.com 1.10,2013-05-01 06:18:00,
2013-05-01 02:33:00,38.6,36.0,30.42,NNW,346,0.0,1.0,89,0.00,,,0.00,weatherlink.com 1.10,2013-05-01 06:33:00,
2013-05-01 02:48:00,38.0,35.0,30.42,NNW,346,0.0,0.0,90,0.00,,,0.00,weatherlink.com 1.10,2013-05-01 06:48:00,
2013-05-01 03:03:00,37.9,36.0,30.42,NNW,346,0.0,0.0,91,0.00,,,0.00,weatherlink.com 1.10,2013-05-01 07:03:00,
2013-05-01 03:18:00,37.7,35.0,30.42,NE,36,2.0,2.0,91,0.00,,,0.00,weatherlink.com 1.10,2013-05-01 07:18:00,
2013-05-01 03:33:00,37.0,34.0,30.43,NNW,338,0.0,2.0,90,0.00,,,0.00,weatherlink.com 1.10,2013-05-01 07:33:00,
2013-05-01 03:48:00,36.8,35.0,30.43,ENE,78,0.0,0.0,92,0.00,,,0.00,weatherlink.com 1.10,2013-05-01 07:48:00,
2013-05-01 04:03:00,37.1,35.0,30.44,NNE,22,1.0,2.0,92,0.00,,,0.00,weatherlink.com 1.10,2013-05-01 08:03:00,
2013-05-01 04:18:00,36.7,35.0,30.44,ENE,67,0.0,0.0,92,0.00,,,0.00,weatherlink.com 1.10,2013-05-01 08:18:00,
2013-05-01 04:33:00,35.9,34.0,30.44,NNW,327,1.0,1.0,92,0.00,,,0.00,weatherlink.com 1.10,2013-05-01 08:33:00,
2013-05-01 04:48:00,35.5,33.0,30.45,NNW,329,0.0,0.0,92,0.00,,,0.00,weatherlink.com 1.10,2013-05-01 08:48:00,
2013-05-01 05:03:00,35.6,34.0,30.45,NNW,338,0.0,0.0,93,0.00,,,0.00,weatherlink.com 1.10,2013-05-01 09:03:00,
2013-05-01 05:18:00,35.3,34.0,30.46,NNW,338,0.0,0.0,93,0.00,,,0.00,weatherlink.com 1.10,2013-05-01 09:18:00,
2013-05-01 05:33:00,35.1,33.0,30.46,NNW,338,0.0,0.0,93,0.00,,,0.00,weatherlink.com 1.10,2013-05-01 09:33:00,
2013-05-01 05:48:00,35.5,34.0,30.46,NE,49,0.0,0.0,94,0.00,,,0.00,weatherlink.com 1.10,2013-05-01 09:48:00,
2013-05-01 06:03:00,35.4,34.0,30.46,NNE,30,1.0,2.0,94,0.00,,,0.00,weatherlink.com 1.10,2013-05-01 10:03:00,
2013-05-01 06:18:00,35.5,34.0,30.46,NNW,348,0.0,1.0,94,0.00,,,0.00,weatherlink.com 1.10,2013-05-01 10:18:00,
2013-05-01 06:34:00,35.9,34.0,30.47,NNW,346,0.0,1.0,94,0.00,,,0.00,weatherlink.com 1.10,2013-05-01 10:34:00,
2013-05-01 06:49:00,36.6,35.0,30.47,NNW,346,0.0,1.0,94,0.00,,,0.00,weatherlink.com 1.10,2013-05-01 10:49:00,
2013-05-01 07:04:00,37.8,36.0,30.47,NNE,22,0.0,1.0,94,0.00,,,0.00,weatherlink.com 1.10,2013-05-01 11:04:00,
2013-05-01 07:19:00,38.9,37.0,30.47,NNE,21,0.0,0.0,93,0.00,,,0.00,weatherlink.com 1.10,2013-05-01 11:19:00,
2013-05-01 07:34:00,40.0,37.0,30.47,NNE,30,1.0,1.0,89,0.00,,,0.00,weatherlink.com 1.10,2013-05-01 11:34:00,
2013-05-01 07:49:00,42.1,37.0,30.48,NE,41,1.0,1.0,82,0.00,,,0.00,weatherlink.com 1.10,2013-05-01 11:49:00,
2013-05-01 08:04:00,43.7,39.0,30.48,NNE,28,0.0,0.0,83,0.00,,,0.00,weatherlink.com 1.10,2013-05-01 12:04:00,
2013-05-01 08:19:00,45.3,40.0,30.48,NNE,24,0.0,0.0,83,0.00,,,0.00,weatherlink.com 1.10,2013-05-01 12:19:00,
2013-05-01 08:34:00,48.2,40.0,30.48,WNW,286,0.0,1.0,73,0.00,,,0.00,weatherlink.com 1.10,2013-05-01 12:34:00,
2013-05-01 08:49:00,50.8,41.0,30.48,SW,223,0.0,4.0,69,0.00,,,0.00,weatherlink.com 1.10,2013-05-01 12:49:00,
2013-05-01 09:04:00,53.5,34.0,30.47,West,270,4.0,5.0,48,0.00,,,0.00,weatherlink.com 1.10,2013-05-01 13:04:00,
2013-05-01 09:19:00,53.8,41.0,30.48,West,268,5.0,7.0,62,0.00,,,0.00,weatherlink.com 1.10,2013-05-01 13:19:00,
2013-05-01 09:34:00,55.2,36.0,30.48,West,260,5.0,8.0,48,0.00,,,0.00,weatherlink.com 1.10,2013-05-01 13:34:00,
2013-05-01 09:49:00,56.0,37.0,30.49,West,275,7.0,7.0,50,0.00,,,0.00,weatherlink.com 1.10,2013-05-01 13:49:00,
2013-05-01 10:04:00,56.4,38.0,30.49,West,259,4.0,7.0,50,0.00,,,0.00,weatherlink.com 1.10,2013-05-01 14:04:00,
2013-05-01 10:19:00,56.9,31.0,30.49,WNW,286,9.0,9.0,37,0.00,,,0.00,weatherlink.com 1.10,2013-05-01 14:19:00,
2013-05-01 10:34:00,56.8,31.0,30.50,SW,222,10.0,10.0,38,0.00,,,0.00,weatherlink.com 1.10,2013-05-01 14:34:00,
2013-05-01 10:49:00,57.1,29.0,30.50,West,281,4.0,11.0,34,0.00,,,0.00,weatherlink.com 1.10,2013-05-01 14:49:00,
2013-05-01 11:04:00,57.8,27.0,30.49,SW,229,7.0,11.0,31,0.00,,,0.00,weatherlink.com 1.10,2013-05-01 15:04:00,
2013-05-01 11:19:00,58.4,29.0,30.50,SW,218,12.0,12.0,33,0.00,,,0.00,weatherlink.com 1.10,2013-05-01 15:19:00,
2013-05-01 11:34:00,59.2,29.0,30.49,WSW,239,8.0,10.0,32,0.00,,,0.00,weatherlink.com 1.10,2013-05-01 15:34:00,
2013-05-01 11:49:00,59.3,30.0,30.49,SW,226,8.0,10.0,33,0.00,,,0.00,weatherlink.com 1.10,2013-05-01 15:49:00,
2013-05-01 12:04:00,58.9,29.0,30.49,West,269,5.0,11.0,32,0.00,,,0.00,weatherlink.com 1.10,2013-05-01 16:04:00,
2013-05-01 12:19:00,59.3,28.0,30.48,SW,226,6.0,12.0,30,0.00,,,0.00,weatherlink.com 1.10,2013-05-01 16:19:00,
2013-05-01 12:34:00,58.8,27.0,30.48,WSW,257,6.0,14.0,30,0.00,,,0.00,weatherlink.com 1.10,2013-05-01 16:34:00,
2013-05-01 12:49:00,58.7,28.0,30.48,SSW,195,4.0,12.0,31,0.00,,,0.00,weatherlink.com 1.10,2013-05-01 16:49:00,
2013-05-01 13:04:00,58.8,28.0,30.48,SW,229,7.0,10.0,31,0.00,,,0.00,weatherlink.com 1.10,2013-05-01 17:04:00,
2013-05-01 13:19:00,59.0,30.0,30.47,WNW,291,7.0,13.0,33,0.00,,,0.00,weatherlink.com 1.10,2013-05-01 17:19:00,
2013-05-01 13:34:00,58.6,29.0,30.47,SW,222,9.0,12.0,32,0.00,,,0.00,weatherlink.com 1.10,2013-05-01 17:34:00,
2013-05-01 13:49:00,58.4,28.0,30.47,SW,234,10.0,11.0,32,0.00,,,0.00,weatherlink.com 1.10,2013-05-01 17:49:00,
2013-05-01 14:04:00,58.5,28.0,30.47,WSW,249,7.0,12.0,31,0.00,,,0.00,weatherlink.com 1.10,2013-05-01 18:04:00,
2013-05-01 14:19:00,57.5,30.0,30.47,SW,234,8.0,12.0,35,0.00,,,0.00,weatherlink.com 1.10,2013-05-01 18:19:00,
2013-05-01 14:35:00,57.3,29.0,30.47,West,277,8.0,12.0,34,0.00,,,0.00,weatherlink.com 1.10,2013-05-01 18:35:00,
2013-05-01 14:50:00,57.1,30.0,30.47,WSW,250,7.0,12.0,35,0.00,,,0.00,weatherlink.com 1.10,2013-05-01 18:50:00,
2013-05-01 15:05:00,56.9,30.0,30.47,West,281,10.0,12.0,36,0.00,,,0.00,weatherlink.com 1.10,2013-05-01 19:05:00,
2013-05-01 15:20:00,56.6,32.0,30.46,West,263,9.0,11.0,39,0.00,,,0.00,weatherlink.com 1.10,2013-05-01 19:20:00,
2013-05-01 15:35:00,56.9,30.0,30.47,WSW,239,10.0,12.0,36,0.00,,,0.00,weatherlink.com 1.10,2013-05-01 19:35:00,
2013-05-01 15:50:00,56.7,31.0,30.47,WSW,237,11.0,15.0,38,0.00,,,0.00,weatherlink.com 1.10,2013-05-01 19:50:00,
2013-05-01 16:05:00,56.0,31.0,30.47,WSW,237,7.0,14.0,39,0.00,,,0.00,weatherlink.com 1.10,2013-05-01 20:05:00,
2013-05-01 16:20:00,56.4,30.0,30.46,SW,224,8.0,13.0,36,0.00,,,0.00,weatherlink.com 1.10,2013-05-01 20:20:00,
2013-05-01 16:35:00,55.1,34.0,30.46,SW,227,9.0,12.0,45,0.00,,,0.00,weatherlink.com 1.10,2013-05-01 20:35:00,
2013-05-01 16:50:00,54.9,35.0,30.46,SW,219,7.0,15.0,47,0.00,,,0.00,weatherlink.com 1.10,2013-05-01 20:50:00,
2013-05-01 17:05:00,56.9,32.0,30.47,West,273,6.0,9.0,39,0.00,,,0.00,weatherlink.com 1.10,2013-05-01 21:05:00,
2013-05-01 17:20:00,56.2,35.0,30.47,West,273,7.0,13.0,46,0.00,,,0.00,weatherlink.com 1.10,2013-05-01 21:20:00,
2013-05-01 17:35:00,56.0,36.0,30.46,West,279,8.0,13.0,48,0.00,,,0.00,weatherlink.com 1.10,2013-05-01 21:35:00,
2013-05-01 17:50:00,55.9,37.0,30.46,West,281,7.0,11.0,50,0.00,,,0.00,weatherlink.com 1.10,2013-05-01 21:50:00,
2013-05-01 18:05:00,55.2,38.0,30.47,WSW,248,5.0,10.0,52,0.00,,,0.00,weatherlink.com 1.10,2013-05-01 22:05:00,
2013-05-01 18:20:00,54.8,38.0,30.46,WSW,241,5.0,11.0,53,0.00,,,0.00,weatherlink.com 1.10,2013-05-01 22:20:00,
2013-05-01 18:35:00,54.2,37.0,30.46,WSW,239,4.0,12.0,53,0.00,,,0.00,weatherlink.com 1.10,2013-05-01 22:35:00,
2013-05-01 18:50:00,54.1,38.0,30.46,WSW,244,5.0,9.0,55,0.00,,,0.00,weatherlink.com 1.10,2013-05-01 22:50:00,
2013-05-01 19:05:00,52.6,40.0,30.46,West,276,5.0,9.0,63,0.00,,,0.00,weatherlink.com 1.10,2013-05-01 23:05:00,
2013-05-01 19:20:00,52.0,38.0,30.46,West,277,6.0,6.0,60,0.00,,,0.00,weatherlink.com 1.10,2013-05-01 23:20:00,
2013-05-01 19:35:00,51.4,38.0,30.47,SSW,196,2.0,4.0,61,0.00,,,0.00,weatherlink.com 1.10,2013-05-01 23:35:00,
2013-05-01 19:50:00,50.6,37.0,30.47,South,184,1.0,6.0,61,0.00,,,0.00,weatherlink.com 1.10,2013-05-01 23:50:00,
2013-05-01 20:05:00,49.9,38.0,30.47,SW,221,1.0,2.0,65,0.00,,,0.00,weatherlink.com 1.10,2013-05-02 00:05:00,
2013-05-01 20:20:00,49.2,39.0,30.48,South,173,1.0,4.0,69,0.00,,,0.00,weatherlink.com 1.10,2013-05-02 00:20:00,
2013-05-01 20:35:00,48.6,40.0,30.47,SW,221,1.0,4.0,71,0.00,,,0.00,weatherlink.com 1.10,2013-05-02 00:35:00,
2013-05-01 20:50:00,48.2,40.0,30.47,SSW,210,0.0,2.0,74,0.00,,,0.00,weatherlink.com 1.10,2013-05-02 00:50:00,
2013-05-01 21:05:00,47.7,41.0,30.47,SW,215,1.0,2.0,78,0.00,,,0.00,weatherlink.com 1.10,2013-05-02 01:05:00,
2013-05-01 21:20:00,47.5,43.0,30.47,SW,217,0.0,4.0,84,0.00,,,0.00,weatherlink.com 1.10,2013-05-02 01:20:00,
2013-05-01 21:35:00,47.1,43.0,30.47,SW,222,0.0,1.0,84,0.00,,,0.00,weatherlink.com 1.10,2013-05-02 01:35:00,
2013-05-01 21:50:00,46.7,42.0,30.47,SW,236,0.0,1.0,84,0.00,,,0.00,weatherlink.com 1.10,2013-05-02 01:50:00,
2013-05-01 22:05:00,46.0,42.0,30.47,SW,236,0.0,0.0,87,0.00,,,0.00,weatherlink.com 1.10,2013-05-02 02:05:00,
2013-05-01 22:20:00,45.7,42.0,30.47,SSE,155,0.0,0.0,87,0.00,,,0.00,weatherlink.com 1.10,2013-05-02 02:20:00,
2013-05-01 22:35:00,45.0,42.0,30.48,SSE,155,0.0,0.0,88,0.00,,,0.00,weatherlink.com 1.10,2013-05-02 02:35:00,
2013-05-01 22:50:00,44.1,41.0,30.47,SSE,153,0.0,1.0,88,0.00,,,0.00,weatherlink.com 1.10,2013-05-02 02:50:00,
2013-05-01 23:05:00,43.4,40.0,30.48,SE,141,0.0,1.0,89,0.00,,,0.00,weatherlink.com 1.10,2013-05-02 03:05:00,
2013-05-01 23:20:00,42.8,40.0,30.48,SE,142,0.0,0.0,89,0.00,,,0.00,weatherlink.com 1.10,2013-05-02 03:20:00,
2013-05-01 23:35:00,42.5,40.0,30.47,SE,142,0.0,0.0,91,0.00,,,0.00,weatherlink.com 1.10,2013-05-02 03:35:00,
2013-05-01 23:50:00,42.0,40.0,30.48,SE,143,0.0,0.0,91,0.00,,,0.00,weatherlink.com 1.10,2013-05-02 03:50:00,